sensor_id;sensor_type;location;lat;lon;timestamp;pressure;altitude;pressure_sealevel;temperature;humidity
52745;BME280;38637;49.984;20.426;2023-02-20T00:00:18;99871.91;;;1.83;82.14
52745;BME280;38637;49.984;20.426;2023-02-20T00:02:44;99867.38;;;1.84;81.79
52745;BME280;38637;49.984;20.426;2023-02-20T00:05:11;99863.00;;;1.83;81.45
52745;BME280;38637;49.984;20.426;2023-02-20T00:07:37;99858.03;;;1.87;81.68
52745;BME280;38637;49.984;20.426;2023-02-20T00:10:03;99864.28;;;1.87;81.65
52745;BME280;38637;49.984;20.426;2023-02-20T00:12:28;99861.38;;;1.89;81.76
52745;BME280;38637;49.984;20.426;2023-02-20T00:14:53;99861.22;;;1.90;81.78
52745;BME280;38637;49.984;20.426;2023-02-20T00:17:18;99856.84;;;1.89;81.43
52745;BME280;38637;49.984;20.426;2023-02-20T00:19:44;99859.13;;;1.92;81.61
52745;BME280;38637;49.984;20.426;2023-02-20T00:22:09;99859.97;;;1.93;81.68
52745;BME280;38637;49.984;20.426;2023-02-20T00:24:34;99867.28;;;1.99;81.91
52745;BME280;38637;49.984;20.426;2023-02-20T00:27:00;99868.75;;;2.01;81.72
52745;BME280;38637;49.984;20.426;2023-02-20T00:29:25;99876.00;;;2.01;81.31
52745;BME280;38637;49.984;20.426;2023-02-20T00:31:52;99868.56;;;2.03;81.06
52745;BME280;38637;49.984;20.426;2023-02-20T00:34:18;99869.84;;;2.07;81.26
52745;BME280;38637;49.984;20.426;2023-02-20T00:36:44;99870.28;;;2.11;80.90
52745;BME280;38637;49.984;20.426;2023-02-20T00:39:09;99871.09;;;2.11;80.88
52745;BME280;38637;49.984;20.426;2023-02-20T00:41:34;99876.69;;;2.10;80.82
52745;BME280;38637;49.984;20.426;2023-02-20T00:44:00;99872.34;;;2.09;80.55
52745;BME280;38637;49.984;20.426;2023-02-20T00:46:25;99869.28;;;2.12;80.63
52745;BME280;38637;49.984;20.426;2023-02-20T00:48:50;99871.75;;;2.13;80.52
52745;BME280;38637;49.984;20.426;2023-02-20T00:51:16;99863.94;;;2.18;80.59
52745;BME280;38637;49.984;20.426;2023-02-20T00:53:41;99867.44;;;2.19;80.13
52745;BME280;38637;49.984;20.426;2023-02-20T00:56:06;99864.56;;;2.20;80.17
52745;BME280;38637;49.984;20.426;2023-02-20T00:58:32;99857.13;;;2.22;79.80
52745;BME280;38637;49.984;20.426;2023-02-20T01:00:57;99860.47;;;2.24;79.90
52745;BME280;38637;49.984;20.426;2023-02-20T01:03:22;99861.06;;;2.26;79.55
52745;BME280;38637;49.984;20.426;2023-02-20T01:05:48;99843.69;;;2.29;79.46
52745;BME280;38637;49.984;20.426;2023-02-20T01:08:13;99838.13;;;2.30;79.21
52745;BME280;38637;49.984;20.426;2023-02-20T01:10:38;99840.41;;;2.34;79.33
52745;BME280;38637;49.984;20.426;2023-02-20T01:13:04;99832.94;;;2.36;79.16
52745;BME280;38637;49.984;20.426;2023-02-20T01:15:29;99824.03;;;2.35;79.35
52745;BME280;38637;49.984;20.426;2023-02-20T01:17:54;99829.44;;;2.35;78.58
52745;BME280;38637;49.984;20.426;2023-02-20T01:20:20;99839.19;;;2.36;77.70
52745;BME280;38637;49.984;20.426;2023-02-20T01:22:45;99849.78;;;2.38;78.35
52745;BME280;38637;49.984;20.426;2023-02-20T01:25:10;99844.78;;;2.35;77.86
52745;BME280;38637;49.984;20.426;2023-02-20T01:27:36;99846.88;;;2.39;78.38
52745;BME280;38637;49.984;20.426;2023-02-20T01:30:02;99843.34;;;2.39;77.63
52745;BME280;38637;49.984;20.426;2023-02-20T01:32:27;99847.91;;;2.38;78.03
52745;BME280;38637;49.984;20.426;2023-02-20T01:34:52;99850.19;;;2.41;77.83
52745;BME280;38637;49.984;20.426;2023-02-20T01:37:18;99855.41;;;2.43;78.26
52745;BME280;38637;49.984;20.426;2023-02-20T01:39:46;99855.41;;;2.43;78.24
52745;BME280;38637;49.984;20.426;2023-02-20T01:42:17;99855.41;;;2.43;78.15
52745;BME280;38637;49.984;20.426;2023-02-20T01:44:43;99865.78;;;2.46;77.76
52745;BME280;38637;49.984;20.426;2023-02-20T01:47:11;99869.09;;;2.48;78.02
52745;BME280;38637;49.984;20.426;2023-02-20T01:49:50;99853.78;;;2.48;77.40
52745;BME280;38637;49.984;20.426;2023-02-20T01:52:28;99852.75;;;2.49;77.45
52745;BME280;38637;49.984;20.426;2023-02-20T01:54:56;99850.50;;;2.53;77.45
52745;BME280;38637;49.984;20.426;2023-02-20T01:57:25;99837.63;;;2.48;77.18
52745;BME280;38637;49.984;20.426;2023-02-20T01:59:56;99847.38;;;2.49;77.04
52745;BME280;38637;49.984;20.426;2023-02-20T02:02:26;99850.72;;;2.51;76.80
52745;BME280;38637;49.984;20.426;2023-02-20T02:04:52;99849.84;;;2.51;77.10
52745;BME280;38637;49.984;20.426;2023-02-20T02:07:18;99849.44;;;2.54;77.71
52745;BME280;38637;49.984;20.426;2023-02-20T02:09:49;99839.31;;;2.56;77.14
52745;BME280;38637;49.984;20.426;2023-02-20T02:12:15;99816.44;;;2.45;77.47
52745;BME280;38637;49.984;20.426;2023-02-20T02:14:41;99837.84;;;2.53;77.34
52745;BME280;38637;49.984;20.426;2023-02-20T02:17:17;99818.16;;;2.53;77.94
52745;BME280;38637;49.984;20.426;2023-02-20T02:28:45;99808.41;;;2.52;78.02
52745;BME280;38637;49.984;20.426;2023-02-20T02:37:17;99816.50;;;2.52;78.08
52745;BME280;38637;49.984;20.426;2023-02-20T02:42:32;99817.50;;;2.51;78.16
52745;BME280;38637;49.984;20.426;2023-02-20T02:50:52;99810.28;;;2.51;78.30
52745;BME280;38637;49.984;20.426;2023-02-20T02:53:20;99825.59;;;2.51;78.26
52745;BME280;38637;49.984;20.426;2023-02-20T02:55:46;99827.06;;;2.53;78.10
52745;BME280;38637;49.984;20.426;2023-02-20T02:58:12;99807.75;;;2.50;78.12
52745;BME280;38637;49.984;20.426;2023-02-20T03:00:42;99809.41;;;2.51;78.08
52745;BME280;38637;49.984;20.426;2023-02-20T03:03:20;99808.59;;;2.50;78.22
52745;BME280;38637;49.984;20.426;2023-02-20T03:08:44;99812.31;;;2.49;78.39
52745;BME280;38637;49.984;20.426;2023-02-20T03:11:15;99803.41;;;2.49;78.16
52745;BME280;38637;49.984;20.426;2023-02-20T03:19:43;99758.16;;;2.44;77.72
52745;BME280;38637;49.984;20.426;2023-02-20T03:22:32;99756.53;;;2.50;77.45
52745;BME280;38637;49.984;20.426;2023-02-20T03:24:59;99754.06;;;2.48;77.38
52745;BME280;38637;49.984;20.426;2023-02-20T03:27:39;99747.81;;;2.48;77.82
52745;BME280;38637;49.984;20.426;2023-02-20T03:30:11;99748.69;;;2.48;77.40
52745;BME280;38637;49.984;20.426;2023-02-20T03:32:40;99746.81;;;2.49;77.72
52745;BME280;38637;49.984;20.426;2023-02-20T03:35:27;99748.22;;;2.45;77.33
52745;BME280;38637;49.984;20.426;2023-02-20T03:38:14;99741.38;;;2.42;77.47
52745;BME280;38637;49.984;20.426;2023-02-20T03:40:59;99743.44;;;2.40;77.46
52745;BME280;38637;49.984;20.426;2023-02-20T03:43:46;99738.41;;;2.30;77.81
52745;BME280;38637;49.984;20.426;2023-02-20T03:46:16;99738.44;;;2.37;77.56
52745;BME280;38637;49.984;20.426;2023-02-20T03:48:54;99743.19;;;2.35;77.95
52745;BME280;38637;49.984;20.426;2023-02-20T03:51:22;99739.03;;;2.33;77.50
52745;BME280;38637;49.984;20.426;2023-02-20T03:53:47;99744.81;;;2.29;77.72
52745;BME280;38637;49.984;20.426;2023-02-20T03:56:17;99751.66;;;2.25;77.67
52745;BME280;38637;49.984;20.426;2023-02-20T03:58:47;99746.22;;;2.19;77.75
52745;BME280;38637;49.984;20.426;2023-02-20T04:01:14;99748.47;;;2.15;78.18
52745;BME280;38637;49.984;20.426;2023-02-20T04:03:44;99746.19;;;2.12;78.38
52745;BME280;38637;49.984;20.426;2023-02-20T04:06:13;99743.66;;;2.11;78.32
52745;BME280;38637;49.984;20.426;2023-02-20T04:08:53;99739.91;;;2.05;78.51
52745;BME280;38637;49.984;20.426;2023-02-20T04:11:28;99761.00;;;2.01;78.56
52745;BME280;38637;49.984;20.426;2023-02-20T04:13:55;99748.16;;;1.97;78.64
52745;BME280;38637;49.984;20.426;2023-02-20T04:16:21;99754.31;;;1.91;78.95
52745;BME280;38637;49.984;20.426;2023-02-20T04:18:47;99755.94;;;1.85;79.39
52745;BME280;38637;49.984;20.426;2023-02-20T04:21:22;99757.59;;;1.86;79.40
52745;BME280;38637;49.984;20.426;2023-02-20T04:24:05;99752.16;;;1.79;79.65
52745;BME280;38637;49.984;20.426;2023-02-20T04:26:33;99751.50;;;1.77;79.65
52745;BME280;38637;49.984;20.426;2023-02-20T04:29:00;99746.78;;;1.79;79.45
52745;BME280;38637;49.984;20.426;2023-02-20T04:31:26;99749.03;;;1.76;79.58
52745;BME280;38637;49.984;20.426;2023-02-20T04:33:51;99751.28;;;1.72;79.53
52745;BME280;38637;49.984;20.426;2023-02-20T04:36:17;99753.53;;;1.69;79.85
52745;BME280;38637;49.984;20.426;2023-02-20T04:38:42;99732.69;;;1.56;80.18
52745;BME280;38637;49.984;20.426;2023-02-20T04:41:07;99741.47;;;1.65;79.54
52745;BME280;38637;49.984;20.426;2023-02-20T04:43:32;99737.31;;;1.62;80.01
52745;BME280;38637;49.984;20.426;2023-02-20T04:45:58;99729.44;;;1.60;79.83
52745;BME280;38637;49.984;20.426;2023-02-20T04:48:23;99727.31;;;1.56;79.90
52745;BME280;38637;49.984;20.426;2023-02-20T04:50:48;99716.56;;;1.56;80.25
52745;BME280;38637;49.984;20.426;2023-02-20T04:53:14;99718.25;;;1.57;80.10
52745;BME280;38637;49.984;20.426;2023-02-20T04:55:39;99716.56;;;1.56;79.90
52745;BME280;38637;49.984;20.426;2023-02-20T04:58:04;99717.59;;;1.55;79.84
52745;BME280;38637;49.984;20.426;2023-02-20T05:00:30;99721.09;;;1.55;80.04
52745;BME280;38637;49.984;20.426;2023-02-20T05:02:57;99720.94;;;1.57;79.60
52745;BME280;38637;49.984;20.426;2023-02-20T05:05:25;99716.75;;;1.54;79.91
52745;BME280;38637;49.984;20.426;2023-02-20T05:08:09;99723.81;;;1.55;80.02
52745;BME280;38637;49.984;20.426;2023-02-20T05:10:34;99720.66;;;1.52;79.62
52745;BME280;38637;49.984;20.426;2023-02-20T05:13:00;99725.41;;;1.50;79.90
52745;BME280;38637;49.984;20.426;2023-02-20T05:15:28;99724.78;;;1.48;79.73
52745;BME280;38637;49.984;20.426;2023-02-20T05:17:54;99715.88;;;1.47;79.69
52745;BME280;38637;49.984;20.426;2023-02-20T05:20:20;99709.66;;;1.47;79.67
52745;BME280;38637;49.984;20.426;2023-02-20T05:23:05;99705.31;;;1.46;79.58
52745;BME280;38637;49.984;20.426;2023-02-20T05:25:31;99703.25;;;1.48;79.69
52745;BME280;38637;49.984;20.426;2023-02-20T05:27:56;99700.56;;;1.48;79.50
52745;BME280;38637;49.984;20.426;2023-02-20T05:30:22;99696.84;;;1.49;79.52
52745;BME280;38637;49.984;20.426;2023-02-20T05:32:47;99701.00;;;1.51;79.41
52745;BME280;38637;49.984;20.426;2023-02-20T05:35:12;99685.63;;;1.45;79.14
52745;BME280;38637;49.984;20.426;2023-02-20T05:37:38;99700.78;;;1.53;78.98
52745;BME280;38637;49.984;20.426;2023-02-20T05:40:03;99697.28;;;1.52;78.99
52745;BME280;38637;49.984;20.426;2023-02-20T05:42:29;99697.09;;;1.54;78.99
52745;BME280;38637;49.984;20.426;2023-02-20T05:44:55;99704.97;;;1.55;79.11
52745;BME280;38637;49.984;20.426;2023-02-20T05:47:20;99707.03;;;1.53;78.72
52745;BME280;38637;49.984;20.426;2023-02-20T05:49:46;99705.16;;;1.54;79.09
52745;BME280;38637;49.984;20.426;2023-02-20T05:52:11;99708.03;;;1.52;78.87
52745;BME280;38637;49.984;20.426;2023-02-20T05:54:38;99720.28;;;1.55;78.74
52745;BME280;38637;49.984;20.426;2023-02-20T05:57:04;99719.25;;;1.56;78.85
52745;BME280;38637;49.984;20.426;2023-02-20T05:59:29;99727.56;;;1.61;78.96
52745;BME280;38637;49.984;20.426;2023-02-20T06:01:56;99731.91;;;1.62;78.42
52745;BME280;38637;49.984;20.426;2023-02-20T06:04:21;99711.88;;;1.65;78.21
52745;BME280;38637;49.984;20.426;2023-02-20T06:06:46;99728.66;;;1.67;77.95
52745;BME280;38637;49.984;20.426;2023-02-20T06:09:12;99732.00;;;1.69;77.95
52745;BME280;38637;49.984;20.426;2023-02-20T06:11:41;99730.38;;;1.74;77.55
52745;BME280;38637;49.984;20.426;2023-02-20T06:14:06;99722.16;;;1.82;77.45
52745;BME280;38637;49.984;20.426;2023-02-20T06:16:33;99729.69;;;1.94;77.07
52745;BME280;38637;49.984;20.426;2023-02-20T06:18:59;99715.66;;;2.05;76.88
52745;BME280;38637;49.984;20.426;2023-02-20T06:21:25;99705.53;;;2.07;75.99
52745;BME280;38637;49.984;20.426;2023-02-20T06:23:52;99723.47;;;2.28;76.06
52745;BME280;38637;49.984;20.426;2023-02-20T06:26:18;99725.81;;;2.38;75.50
52745;BME280;38637;49.984;20.426;2023-02-20T06:28:44;99719.63;;;2.50;74.62
52745;BME280;38637;49.984;20.426;2023-02-20T06:31:10;99717.84;;;2.64;74.42
52745;BME280;38637;49.984;20.426;2023-02-20T06:33:36;99717.47;;;2.74;73.99
52745;BME280;38637;49.984;20.426;2023-02-20T06:36:03;99707.56;;;2.88;73.95
52745;BME280;38637;49.984;20.426;2023-02-20T06:38:28;99712.13;;;2.94;73.35
52745;BME280;38637;49.984;20.426;2023-02-20T06:40:53;99717.72;;;2.99;73.72
52745;BME280;38637;49.984;20.426;2023-02-20T06:43:19;99708.22;;;3.03;73.89
52745;BME280;38637;49.984;20.426;2023-02-20T06:45:45;99710.09;;;3.09;73.25
52745;BME280;38637;49.984;20.426;2023-02-20T06:48:11;99708.41;;;3.15;73.22
52745;BME280;38637;49.984;20.426;2023-02-20T06:50:39;99710.09;;;3.22;72.23
52745;BME280;38637;49.984;20.426;2023-02-20T06:53:04;99702.84;;;3.23;72.37
52745;BME280;38637;49.984;20.426;2023-02-20T06:55:29;99710.13;;;3.36;71.98
52745;BME280;38637;49.984;20.426;2023-02-20T06:57:55;99704.72;;;3.42;71.45
52745;BME280;38637;49.984;20.426;2023-02-20T07:00:20;99724.25;;;3.44;70.70
52745;BME280;38637;49.984;20.426;2023-02-20T07:02:45;99715.53;;;3.49;69.84
52745;BME280;38637;49.984;20.426;2023-02-20T07:05:11;99706.41;;;3.50;69.81
52745;BME280;38637;49.984;20.426;2023-02-20T07:07:37;99710.97;;;3.56;70.44
52745;BME280;38637;49.984;20.426;2023-02-20T07:10:03;99703.09;;;3.61;69.65
52745;BME280;38637;49.984;20.426;2023-02-20T07:12:31;99692.69;;;3.65;68.81
52745;BME280;38637;49.984;20.426;2023-02-20T07:14:57;99673.97;;;3.63;69.22
52745;BME280;38637;49.984;20.426;2023-02-20T07:17:23;99673.34;;;3.75;69.21
52745;BME280;38637;49.984;20.426;2023-02-20T07:19:48;99668.75;;;3.82;68.72
52745;BME280;38637;49.984;20.426;2023-02-20T07:22:13;99668.16;;;3.86;68.95
52745;BME280;38637;49.984;20.426;2023-02-20T07:24:39;99658.97;;;3.94;68.23
52745;BME280;38637;49.984;20.426;2023-02-20T07:27:06;99665.22;;;4.01;68.22
52745;BME280;38637;49.984;20.426;2023-02-20T07:29:32;99668.72;;;4.08;67.97
52745;BME280;38637;49.984;20.426;2023-02-20T07:31:57;99668.91;;;4.13;67.26
52745;BME280;38637;49.984;20.426;2023-02-20T07:34:22;99663.69;;;4.19;66.56
52745;BME280;38637;49.984;20.426;2023-02-20T07:36:48;99658.06;;;4.27;66.76
52745;BME280;38637;49.984;20.426;2023-02-20T07:39:13;99662.38;;;4.34;65.86
52745;BME280;38637;49.984;20.426;2023-02-20T07:41:39;99652.16;;;4.43;65.58
52745;BME280;38637;49.984;20.426;2023-02-20T07:44:05;99649.41;;;4.50;64.81
52745;BME280;38637;49.984;20.426;2023-02-20T07:46:30;99642.13;;;4.57;65.12
52745;BME280;38637;49.984;20.426;2023-02-20T07:48:59;99636.88;;;4.62;64.99
52745;BME280;38637;49.984;20.426;2023-02-20T07:51:25;99644.56;;;4.65;64.06
52745;BME280;38637;49.984;20.426;2023-02-20T07:53:51;99645.56;;;4.71;64.08
52745;BME280;38637;49.984;20.426;2023-02-20T07:56:19;99644.13;;;4.75;62.91
52745;BME280;38637;49.984;20.426;2023-02-20T07:58:45;99648.66;;;4.81;62.56
52745;BME280;38637;49.984;20.426;2023-02-20T08:01:10;99643.41;;;4.86;62.45
52745;BME280;38637;49.984;20.426;2023-02-20T08:03:36;99635.66;;;4.96;61.74
52745;BME280;38637;49.984;20.426;2023-02-20T08:06:01;99628.94;;;5.05;62.36
52745;BME280;38637;49.984;20.426;2023-02-20T08:08:27;99626.94;;;5.19;61.62
52745;BME280;38637;49.984;20.426;2023-02-20T08:10:52;99620.38;;;5.34;61.59
52745;BME280;38637;49.984;20.426;2023-02-20T08:13:17;99614.06;;;5.40;60.75
52745;BME280;38637;49.984;20.426;2023-02-20T08:15:43;99607.03;;;5.57;60.67
52745;BME280;38637;49.984;20.426;2023-02-20T08:18:12;99604.84;;;5.66;59.36
52745;BME280;38637;49.984;20.426;2023-02-20T08:20:38;99622.09;;;5.71;58.51
52745;BME280;38637;49.984;20.426;2023-02-20T08:23:03;99626.63;;;5.78;58.52
52745;BME280;38637;49.984;20.426;2023-02-20T08:25:30;99630.13;;;5.85;58.07
52745;BME280;38637;49.984;20.426;2023-02-20T08:27:57;99627.94;;;5.93;57.83
52745;BME280;38637;49.984;20.426;2023-02-20T08:30:25;99614.78;;;5.97;56.96
52745;BME280;38637;49.984;20.426;2023-02-20T08:32:51;99608.47;;;6.03;57.03
52745;BME280;38637;49.984;20.426;2023-02-20T08:35:18;99596.94;;;6.08;57.12
52745;BME280;38637;49.984;20.426;2023-02-20T08:37:44;99591.97;;;6.05;56.36
52745;BME280;38637;49.984;20.426;2023-02-20T08:40:09;99573.72;;;6.12;57.13
52745;BME280;38637;49.984;20.426;2023-02-20T08:42:35;99576.38;;;6.18;56.96
52745;BME280;38637;49.984;20.426;2023-02-20T08:45:03;99556.09;;;6.21;56.43
52745;BME280;38637;49.984;20.426;2023-02-20T08:47:28;99571.88;;;6.42;55.97
52745;BME280;38637;49.984;20.426;2023-02-20T08:49:53;99559.28;;;6.48;56.44
52745;BME280;38637;49.984;20.426;2023-02-20T08:52:19;99559.06;;;6.50;55.98
52745;BME280;38637;49.984;20.426;2023-02-20T08:54:47;99553.06;;;6.59;55.83
52745;BME280;38637;49.984;20.426;2023-02-20T08:57:14;99537.56;;;6.48;55.52
52745;BME280;38637;49.984;20.426;2023-02-20T08:59:39;99559.78;;;6.57;55.61
52745;BME280;38637;49.984;20.426;2023-02-20T09:02:05;99567.91;;;6.57;55.29
52745;BME280;38637;49.984;20.426;2023-02-20T09:04:31;99551.19;;;6.60;54.86
52745;BME280;38637;49.984;20.426;2023-02-20T09:06:56;99555.06;;;6.64;54.76
52745;BME280;38637;49.984;20.426;2023-02-20T09:09:21;99553.31;;;6.70;54.55
52745;BME280;38637;49.984;20.426;2023-02-20T09:11:47;99566.69;;;6.71;54.09
52745;BME280;38637;49.984;20.426;2023-02-20T09:14:12;99566.56;;;6.78;54.96
52745;BME280;38637;49.984;20.426;2023-02-20T09:16:37;99559.88;;;6.92;54.76
52745;BME280;38637;49.984;20.426;2023-02-20T09:19:08;99559.78;;;6.99;54.64
52745;BME280;38637;49.984;20.426;2023-02-20T09:21:34;99560.72;;;6.93;54.81
52745;BME280;38637;49.984;20.426;2023-02-20T09:23:59;99530.72;;;6.87;54.33
52745;BME280;38637;49.984;20.426;2023-02-20T09:26:24;99520.53;;;6.71;54.78
52745;BME280;38637;49.984;20.426;2023-02-20T09:28:50;99524.69;;;6.74;55.39
52745;BME280;38637;49.984;20.426;2023-02-20T09:31:15;99505.13;;;6.83;55.13
52745;BME280;38637;49.984;20.426;2023-02-20T09:33:44;99500.63;;;6.89;55.54
52745;BME280;38637;49.984;20.426;2023-02-20T09:36:10;99506.53;;;6.86;55.65
52745;BME280;38637;49.984;20.426;2023-02-20T09:38:35;99508.41;;;6.85;56.08
52745;BME280;38637;49.984;20.426;2023-02-20T09:41:00;99495.41;;;6.76;56.32
52745;BME280;38637;49.984;20.426;2023-02-20T09:46:16;99486.34;;;6.82;56.88
52745;BME280;38637;49.984;20.426;2023-02-20T09:49:09;99471.59;;;6.89;57.07
52745;BME280;38637;49.984;20.426;2023-02-20T09:51:40;99467.47;;;6.99;57.74
52745;BME280;38637;49.984;20.426;2023-02-20T09:54:10;99477.50;;;6.98;57.28
52745;BME280;38637;49.984;20.426;2023-02-20T09:56:50;99473.72;;;6.99;58.11
52745;BME280;38637;49.984;20.426;2023-02-20T09:59:30;99461.31;;;6.91;57.73
52745;BME280;38637;49.984;20.426;2023-02-20T10:02:03;99476.75;;;6.79;58.27
52745;BME280;38637;49.984;20.426;2023-02-20T10:04:39;99456.13;;;6.78;58.47
52745;BME280;38637;49.984;20.426;2023-02-20T10:09:53;99447.28;;;6.71;58.87
52745;BME280;38637;49.984;20.426;2023-02-20T10:12:33;99440.56;;;6.74;58.59
52745;BME280;38637;49.984;20.426;2023-02-20T10:15:27;99440.53;;;6.85;58.78
52745;BME280;38637;49.984;20.426;2023-02-20T10:25:40;99416.31;;;7.19;58.83
52745;BME280;38637;49.984;20.426;2023-02-20T10:28:15;99418.81;;;7.09;59.24
52745;BME280;38637;49.984;20.426;2023-02-20T10:31:11;99423.22;;;6.98;59.32
52745;BME280;38637;49.984;20.426;2023-02-20T10:33:50;99409.38;;;7.11;59.60
52745;BME280;38637;49.984;20.426;2023-02-20T10:36:23;99400.00;;;7.31;59.75
52745;BME280;38637;49.984;20.426;2023-02-20T10:38:53;99394.44;;;7.37;59.86
52745;BME280;38637;49.984;20.426;2023-02-20T10:44:20;99379.69;;;7.33;60.37
52745;BME280;38637;49.984;20.426;2023-02-20T10:49:26;99373.81;;;7.13;61.71
52745;BME280;38637;49.984;20.426;2023-02-20T10:51:58;99371.03;;;7.08;61.97
52745;BME280;38637;49.984;20.426;2023-02-20T10:57:09;99352.03;;;7.08;62.43
52745;BME280;38637;49.984;20.426;2023-02-20T11:02:24;99336.53;;;7.20;63.05
52745;BME280;38637;49.984;20.426;2023-02-20T11:04:59;99335.94;;;7.18;63.08
52745;BME280;38637;49.984;20.426;2023-02-20T11:07:26;99330.38;;;7.13;63.53
52745;BME280;38637;49.984;20.426;2023-02-20T11:09:51;99335.09;;;7.18;63.29
52745;BME280;38637;49.984;20.426;2023-02-20T11:14:54;99297.38;;;7.62;62.68
52745;BME280;38637;49.984;20.426;2023-02-20T11:17:23;99294.69;;;7.78;62.57
52745;BME280;38637;49.984;20.426;2023-02-20T11:19:58;99287.09;;;7.80;61.98
52745;BME280;38637;49.984;20.426;2023-02-20T11:22:46;99283.56;;;7.80;62.78
52745;BME280;38637;49.984;20.426;2023-02-20T11:25:35;99280.22;;;7.90;62.21
52745;BME280;38637;49.984;20.426;2023-02-20T11:28:18;99265.69;;;8.01;61.87
52745;BME280;38637;49.984;20.426;2023-02-20T11:30:48;99246.00;;;8.11;61.47
52745;BME280;38637;49.984;20.426;2023-02-20T11:33:17;99249.22;;;8.24;61.70
52745;BME280;38637;49.984;20.426;2023-02-20T11:35:45;99240.94;;;8.36;61.56
52745;BME280;38637;49.984;20.426;2023-02-20T11:43:32;99239.66;;;8.39;61.42
52745;BME280;38637;49.984;20.426;2023-02-20T11:46:15;99231.25;;;8.23;61.41
52745;BME280;38637;49.984;20.426;2023-02-20T11:51:42;99219.41;;;8.35;61.69
52745;BME280;38637;49.984;20.426;2023-02-20T11:54:22;99219.84;;;8.43;62.02
52745;BME280;38637;49.984;20.426;2023-02-20T12:02:29;99203.38;;;8.16;63.31
52745;BME280;38637;49.984;20.426;2023-02-20T12:05:05;99187.16;;;8.21;63.34
52745;BME280;38637;49.984;20.426;2023-02-20T12:12:47;99185.38;;;8.49;63.09
52745;BME280;38637;49.984;20.426;2023-02-20T12:15:18;99179.63;;;8.45;63.89
52745;BME280;38637;49.984;20.426;2023-02-20T12:20:30;99158.41;;;8.47;64.04
52745;BME280;38637;49.984;20.426;2023-02-20T12:28:24;99140.75;;;8.50;64.76
52745;BME280;38637;49.984;20.426;2023-02-20T12:31:12;99125.56;;;8.54;64.45
52745;BME280;38637;49.984;20.426;2023-02-20T12:39:05;99103.13;;;8.69;63.77
52745;BME280;38637;49.984;20.426;2023-02-20T12:41:49;99088.69;;;8.68;63.80
52745;BME280;38637;49.984;20.426;2023-02-20T12:47:36;99075.00;;;8.58;64.96
52745;BME280;38637;49.984;20.426;2023-02-20T12:53:00;99081.56;;;8.62;64.33
52745;BME280;38637;49.984;20.426;2023-02-20T13:01:06;99062.94;;;8.76;65.02
52745;BME280;38637;49.984;20.426;2023-02-20T13:06:06;99042.84;;;8.82;63.96
52745;BME280;38637;49.984;20.426;2023-02-20T13:11:15;99029.88;;;8.94;64.08
52745;BME280;38637;49.984;20.426;2023-02-20T13:19:22;99003.16;;;8.91;63.38
52745;BME280;38637;49.984;20.426;2023-02-20T13:21:53;99004.59;;;8.67;64.05
52745;BME280;38637;49.984;20.426;2023-02-20T13:26:55;98978.78;;;8.42;64.35
52745;BME280;38637;49.984;20.426;2023-02-20T13:29:24;98988.88;;;8.47;64.73
52745;BME280;38637;49.984;20.426;2023-02-20T13:31:56;98989.66;;;8.42;64.84
52745;BME280;38637;49.984;20.426;2023-02-20T13:34:31;98999.38;;;8.38;65.31
52745;BME280;38637;49.984;20.426;2023-02-20T13:36:57;98997.25;;;8.40;64.96
52745;BME280;38637;49.984;20.426;2023-02-20T13:39:34;98965.56;;;8.56;65.29
52745;BME280;38637;49.984;20.426;2023-02-20T13:42:02;98971.28;;;8.55;65.20
52745;BME280;38637;49.984;20.426;2023-02-20T13:54:58;98928.09;;;8.68;64.08
52745;BME280;38637;49.984;20.426;2023-02-20T13:57:24;98931.38;;;8.70;64.32
52745;BME280;38637;49.984;20.426;2023-02-20T13:59:54;98932.47;;;8.69;64.34
52745;BME280;38637;49.984;20.426;2023-02-20T14:02:21;98905.72;;;8.61;63.81
52745;BME280;38637;49.984;20.426;2023-02-20T14:05:04;98885.06;;;8.60;64.29
52745;BME280;38637;49.984;20.426;2023-02-20T14:07:38;98865.72;;;8.62;64.74
52745;BME280;38637;49.984;20.426;2023-02-20T14:10:15;98868.69;;;8.55;64.55
52745;BME280;38637;49.984;20.426;2023-02-20T14:12:41;98836.50;;;8.47;64.56
52745;BME280;38637;49.984;20.426;2023-02-20T14:15:07;98837.28;;;8.42;65.02
52745;BME280;38637;49.984;20.426;2023-02-20T14:17:33;98833.19;;;8.40;64.93
52745;BME280;38637;49.984;20.426;2023-02-20T14:20:04;98845.31;;;8.27;64.94
52745;BME280;38637;49.984;20.426;2023-02-20T14:22:33;98842.31;;;8.28;65.26
52745;BME280;38637;49.984;20.426;2023-02-20T14:25:18;98825.66;;;8.20;65.74
52745;BME280;38637;49.984;20.426;2023-02-20T14:27:44;98825.41;;;8.21;65.54
52745;BME280;38637;49.984;20.426;2023-02-20T14:30:27;98802.19;;;8.14;65.60
52745;BME280;38637;49.984;20.426;2023-02-20T14:32:55;98804.09;;;8.13;65.91
52745;BME280;38637;49.984;20.426;2023-02-20T14:35:35;98808.13;;;8.05;65.77
52745;BME280;38637;49.984;20.426;2023-02-20T14:40:40;98782.53;;;8.01;66.07
52745;BME280;38637;49.984;20.426;2023-02-20T14:43:15;98795.00;;;7.97;66.03
52745;BME280;38637;49.984;20.426;2023-02-20T14:45:43;98795.28;;;7.96;66.23
52745;BME280;38637;49.984;20.426;2023-02-20T14:48:28;98792.56;;;7.96;66.39
52745;BME280;38637;49.984;20.426;2023-02-20T14:51:20;98794.94;;;7.92;67.15
52745;BME280;38637;49.984;20.426;2023-02-20T14:53:56;98791.25;;;8.03;68.29
52745;BME280;38637;49.984;20.426;2023-02-20T14:56:22;98775.22;;;8.02;66.80
52745;BME280;38637;49.984;20.426;2023-02-20T14:58:48;98775.72;;;7.99;66.80
52745;BME280;38637;49.984;20.426;2023-02-20T15:04:00;98754.50;;;7.96;67.15
52745;BME280;38637;49.984;20.426;2023-02-20T15:06:29;98743.31;;;7.92;66.98
52745;BME280;38637;49.984;20.426;2023-02-20T15:08:59;98731.63;;;7.92;67.25
52745;BME280;38637;49.984;20.426;2023-02-20T15:11:26;98722.91;;;7.90;67.23
52745;BME280;38637;49.984;20.426;2023-02-20T15:13:53;98721.53;;;7.87;67.49
52745;BME280;38637;49.984;20.426;2023-02-20T15:16:24;98710.84;;;7.80;67.19
52745;BME280;38637;49.984;20.426;2023-02-20T15:18:50;98702.22;;;7.89;66.93
52745;BME280;38637;49.984;20.426;2023-02-20T15:21:34;98706.84;;;7.88;67.04